createdAt,value
2023-09-01T00:01:04.710Z,1.60
2023-09-01T00:04:07.596Z,1.50
2023-09-01T00:06:54.294Z,1.67
2023-09-01T00:09:40.448Z,1.50
2023-09-01T00:12:27.038Z,1.60
2023-09-01T00:15:29.039Z,1.77
2023-09-01T00:18:15.360Z,2.15
2023-09-01T00:21:04.938Z,1.80
2023-09-01T00:23:51.321Z,2.22
2023-09-01T00:26:37.406Z,2.20
2023-09-01T00:29:23.594Z,2.75
2023-09-01T00:32:09.728Z,2.00
2023-09-01T00:34:59.580Z,2.28
2023-09-01T00:37:45.610Z,2.40
2023-09-01T00:40:31.909Z,2.50
2023-09-01T00:43:18.179Z,2.47
2023-09-01T00:46:04.945Z,2.40
2023-09-01T00:48:51.984Z,2.40
2023-09-01T00:51:38.665Z,2.50
2023-09-01T00:54:24.947Z,2.25
2023-09-01T00:57:11.236Z,2.33
2023-09-01T00:59:57.348Z,2.13
2023-09-01T01:02:43.753Z,1.90
2023-09-01T01:05:50.658Z,1.92
2023-09-01T01:09:06.340Z,1.50
2023-09-01T01:11:58.091Z,1.55
2023-09-01T01:14:48.488Z,1.60
2023-09-01T01:17:35.127Z,1.20
2023-09-01T01:20:33.095Z,1.50
2023-09-01T01:23:21.250Z,1.60
2023-09-01T01:26:09.450Z,1.70
2023-09-01T01:28:55.523Z,1.60
2023-09-01T01:31:42.640Z,1.70
2023-09-01T01:34:38.220Z,1.60
2023-09-01T01:37:31.588Z,1.60
2023-09-01T01:40:19.568Z,2.10
2023-09-01T01:43:06.546Z,2.30
2023-09-01T01:45:53.180Z,2.25
2023-09-01T01:48:39.472Z,2.47
2023-09-01T01:51:25.939Z,2.30
2023-09-01T01:54:12.362Z,2.45
2023-09-01T01:56:58.879Z,2.50
2023-09-01T01:59:46.111Z,2.65
2023-09-01T02:02:32.353Z,2.83
2023-09-01T02:05:19.133Z,2.88
2023-09-01T02:08:07.295Z,2.50
2023-09-01T02:10:53.769Z,2.60
2023-09-01T02:13:40.374Z,2.83
2023-09-01T02:16:26.764Z,2.30
2023-09-01T02:19:14.177Z,2.35
2023-09-01T02:22:00.545Z,2.25
2023-09-01T02:24:46.635Z,2.38
2023-09-01T02:27:32.873Z,2.70
2023-09-01T02:30:18.949Z,2.90
2023-09-01T02:33:05.545Z,2.50
2023-09-01T02:35:52.664Z,2.72
2023-09-01T02:38:38.876Z,2.70
2023-09-01T02:41:25.183Z,2.80
2023-09-01T02:44:11.685Z,2.72
2023-09-01T02:46:57.796Z,2.85
2023-09-01T02:49:43.936Z,2.88
2023-09-01T02:52:30.201Z,3.38
2023-09-01T02:55:19.226Z,3.50
2023-09-01T02:58:07.217Z,3.47
2023-09-01T03:00:54.187Z,3.13
2023-09-01T03:03:44.722Z,3.65
2023-09-01T03:06:31.864Z,3.40
2023-09-01T03:09:18.807Z,4.13
2023-09-01T03:12:05.624Z,3.72
2023-09-01T03:14:51.699Z,4.57
2023-09-01T03:17:38.047Z,4.20
2023-09-01T03:20:25.218Z,4.20
2023-09-01T03:23:11.378Z,4.38
2023-09-01T03:25:58.150Z,4.60
2023-09-01T03:28:45.992Z,4.68
2023-09-01T03:31:33.547Z,4.50
2023-09-01T03:34:22.606Z,4.63
2023-09-01T03:37:13.265Z,4.90
2023-09-01T03:39:59.789Z,4.85
2023-09-01T03:42:45.940Z,4.60
2023-09-01T03:45:32.484Z,4.57
2023-09-01T03:48:18.999Z,4.50
2023-09-01T03:51:11.529Z,4.35
2023-09-01T03:56:45.186Z,4.53
2023-09-01T03:59:34.336Z,4.95
2023-09-01T04:02:22.488Z,4.30
2023-09-01T04:05:08.786Z,4.13
2023-09-01T04:07:55.365Z,4.28
2023-09-01T04:10:41.928Z,4.50
2023-09-01T04:13:34.979Z,4.88
2023-09-01T04:16:21.183Z,4.88
2023-09-01T04:19:07.231Z,4.70
2023-09-01T04:21:53.632Z,4.95
2023-09-01T04:24:40.562Z,4.75
2023-09-01T04:27:26.936Z,4.85
2023-09-01T04:30:13.447Z,5.13
2023-09-01T04:33:00.790Z,5.28
2023-09-01T04:35:57.204Z,4.90
2023-09-01T04:38:43.635Z,5.00
2023-09-01T04:41:29.927Z,5.30
2023-09-01T04:44:16.205Z,5.70
2023-09-01T04:47:02.220Z,5.38
2023-09-01T04:49:48.859Z,5.47
2023-09-01T04:52:42.643Z,5.55
2023-09-01T04:55:30.707Z,5.40
2023-09-01T04:58:17.520Z,6.00
2023-09-01T05:01:03.938Z,5.47
2023-09-01T05:03:51.238Z,5.35
2023-09-01T05:06:37.884Z,5.32
2023-09-01T05:09:24.576Z,5.60
2023-09-01T05:12:10.755Z,5.40
2023-09-01T05:14:57.075Z,5.30
2023-09-01T05:17:43.338Z,5.38
2023-09-01T05:20:29.900Z,5.28
2023-09-01T05:23:16.484Z,5.35
2023-09-01T05:26:03.638Z,4.90
2023-09-01T05:28:50.086Z,5.28
2023-09-01T05:31:36.540Z,4.88
2023-09-01T05:34:22.947Z,4.80
2023-09-01T05:37:09.420Z,4.93
2023-09-01T05:39:57.290Z,4.88
2023-09-01T05:42:43.433Z,4.65
2023-09-01T05:45:30.262Z,4.85
2023-09-01T05:48:17.178Z,5.00
2023-09-01T05:51:04.493Z,4.90
2023-09-01T05:53:51.029Z,4.93
2023-09-01T05:56:37.417Z,5.38
2023-09-01T05:59:23.796Z,4.70
2023-09-01T06:02:10.755Z,4.50
2023-09-01T06:05:03.171Z,4.40
2023-09-01T06:07:50.031Z,4.33
2023-09-01T06:10:36.373Z,4.55
2023-09-01T06:13:23.563Z,3.97
2023-09-01T06:16:11.568Z,4.10
2023-09-01T06:18:59.696Z,4.18
2023-09-01T06:21:45.870Z,4.07
2023-09-01T06:24:32.087Z,4.45
2023-09-01T06:27:18.625Z,4.05
2023-09-01T06:30:06.813Z,3.90
2023-09-01T06:32:53.256Z,3.92
2023-09-01T06:35:39.380Z,4.05
2023-09-01T06:38:51.256Z,3.90
2023-09-01T06:41:37.720Z,3.80
2023-09-01T06:44:23.852Z,3.85
2023-09-01T06:47:14.208Z,3.83
2023-09-01T06:50:00.518Z,3.85
2023-09-01T06:52:46.574Z,4.28
2023-09-01T06:55:33.047Z,3.90
2023-09-01T06:58:19.549Z,3.92
2023-09-01T07:01:12.812Z,3.63
2023-09-01T07:03:59.350Z,3.88
2023-09-01T07:06:45.732Z,3.75
2023-09-01T07:09:32.066Z,3.90
2023-09-01T07:12:18.306Z,3.20
2023-09-01T07:15:06.176Z,3.80
2023-09-01T07:17:52.809Z,3.47
2023-09-01T07:20:39.248Z,3.22
2023-09-01T07:23:26.558Z,3.55
2023-09-01T07:26:12.998Z,3.47
2023-09-01T07:28:59.231Z,3.72
2023-09-01T07:31:46.033Z,3.42
2023-09-01T07:34:37.294Z,3.63
2023-09-01T07:37:23.404Z,3.75
2023-09-01T07:40:10.377Z,3.70
2023-09-01T07:42:57.260Z,3.88
2023-09-01T07:45:44.316Z,3.65
2023-09-01T07:48:31.173Z,4.00
2023-09-01T07:51:18.084Z,3.72
2023-09-01T07:54:05.700Z,3.85
2023-09-01T07:56:52.341Z,3.50
2023-09-01T07:59:38.609Z,3.70
2023-09-01T08:02:25.601Z,3.40
2023-09-01T08:05:12.748Z,2.97
2023-09-01T08:07:59.730Z,3.30
2023-09-01T08:10:46.752Z,3.20
2023-09-01T08:13:33.646Z,3.72
2023-09-01T08:16:20.112Z,3.00
2023-09-01T08:19:07.179Z,3.00
2023-09-01T08:21:53.460Z,3.00
2023-09-01T08:24:39.681Z,3.03
2023-09-01T08:27:29.259Z,2.92
2023-09-01T08:30:15.783Z,2.90
2023-09-01T08:33:06.248Z,2.92
2023-09-01T08:35:54.042Z,2.78
2023-09-01T08:38:43.609Z,3.20
2023-09-01T08:41:31.515Z,3.33
2023-09-01T08:44:21.614Z,2.85
2023-09-01T08:47:08.572Z,2.97
2023-09-01T08:49:56.472Z,2.70
2023-09-01T08:52:44.300Z,2.70
2023-09-01T08:55:31.399Z,2.53
2023-09-01T08:58:19.349Z,3.00
2023-09-01T09:01:05.850Z,2.80
2023-09-01T09:03:52.278Z,2.58
2023-09-01T09:06:39.384Z,2.53
2023-09-01T09:09:26.702Z,2.50
2023-09-01T09:12:13.548Z,2.58
2023-09-01T09:15:00.548Z,2.75
2023-09-01T09:17:48.083Z,2.30
2023-09-01T09:20:40.868Z,2.40
2023-09-01T09:24:28.089Z,2.47
2023-09-01T09:27:17.926Z,2.53
2023-09-01T09:30:08.868Z,2.70
2023-09-01T09:33:16.472Z,2.60
2023-09-01T09:36:06.389Z,2.40
2023-09-01T09:39:02.876Z,2.40
2023-09-01T09:41:51.310Z,2.50
2023-09-01T09:50:22.021Z,1.85
2023-09-01T09:53:09.476Z,2.03
2023-09-01T09:55:58.781Z,2.05
2023-09-01T09:58:46.205Z,2.10
2023-09-01T10:01:33.745Z,2.38
2023-09-01T10:04:20.995Z,2.28
2023-09-01T10:07:07.420Z,2.28
2023-09-01T10:09:54.719Z,2.30
2023-09-01T10:12:42.092Z,2.30
2023-09-01T10:15:28.717Z,2.25
2023-09-01T10:18:15.179Z,2.30
2023-09-01T10:21:01.611Z,2.22
2023-09-01T10:23:48.704Z,2.47
2023-09-01T10:26:35.535Z,1.75
2023-09-01T10:29:37.667Z,2.20
2023-09-01T10:32:23.764Z,2.20
2023-09-01T10:35:11.338Z,2.10
2023-09-01T10:38:14.694Z,2.60
2023-09-01T10:41:01.330Z,2.15
2023-09-01T10:43:57.445Z,1.77
2023-09-01T10:46:44.512Z,1.90
2023-09-01T10:50:02.883Z,1.90
2023-09-01T10:53:09.508Z,1.60
2023-09-01T10:56:09.449Z,1.85
2023-09-01T10:58:56.407Z,1.60
2023-09-01T11:01:43.282Z,1.60
2023-09-01T11:04:30.737Z,1.80
2023-09-01T11:07:17.371Z,1.80
2023-09-01T11:10:04.372Z,1.60
2023-09-01T11:12:50.907Z,2.00
2023-09-01T11:15:46.594Z,1.90
2023-09-01T11:18:54.569Z,1.77
2023-09-01T11:21:42.830Z,2.03
2023-09-01T11:24:30.686Z,2.00
2023-09-01T11:27:16.866Z,2.10
2023-09-01T11:30:06.769Z,2.15
2023-09-01T11:32:53.485Z,2.15
2023-09-01T11:35:39.915Z,2.00
2023-09-01T11:38:32.353Z,1.80
2023-09-01T11:41:21.283Z,1.80
2023-09-01T11:44:08.795Z,1.80
2023-09-01T11:46:59.066Z,1.98
2023-09-01T11:49:47.449Z,2.10
2023-09-01T11:52:33.955Z,1.83
2023-09-01T11:55:31.657Z,1.70
2023-09-01T11:58:18.218Z,1.98
2023-09-01T12:01:12.082Z,1.85
2023-09-01T12:04:12.007Z,1.85
2023-09-01T12:07:03.533Z,1.75
2023-09-01T12:09:49.790Z,1.92
2023-09-01T12:12:39.613Z,1.80
2023-09-01T12:15:25.852Z,2.13
2023-09-01T12:18:31.294Z,1.90
2023-09-01T12:21:17.700Z,1.70
2023-09-01T12:24:07.409Z,1.83
2023-09-01T12:26:53.738Z,1.75
2023-09-01T12:29:40.791Z,1.70
2023-09-01T12:32:29.397Z,2.00
2023-09-01T12:35:15.769Z,1.85
2023-09-01T12:38:01.814Z,1.77
2023-09-01T12:40:48.652Z,1.88
2023-09-01T12:43:34.917Z,1.90
2023-09-01T12:46:21.245Z,1.77
2023-09-01T12:49:07.875Z,1.58
2023-09-01T12:51:54.084Z,1.60
2023-09-01T12:54:40.070Z,1.77
2023-09-01T12:57:26.274Z,1.80
2023-09-01T13:00:13.765Z,1.70
2023-09-01T13:03:00.037Z,1.70
2023-09-01T13:05:48.789Z,1.50
2023-09-01T13:08:35.335Z,1.40
2023-09-01T13:11:21.710Z,1.40
2023-09-01T13:14:08.057Z,1.80
2023-09-01T13:16:57.311Z,1.58
2023-09-01T13:19:48.682Z,1.50
2023-09-01T13:22:36.531Z,1.55
2023-09-01T13:25:24.857Z,1.70
2023-09-01T13:28:11.117Z,1.45
2023-09-01T13:30:58.990Z,1.70
2023-09-01T13:33:45.335Z,1.60
2023-09-01T13:36:31.812Z,1.60
2023-09-01T13:39:18.523Z,1.42
2023-09-01T13:42:04.963Z,1.52
2023-09-01T13:44:58.116Z,1.60
2023-09-01T13:47:45.642Z,1.40
2023-09-01T13:50:31.676Z,1.40
2023-09-01T13:53:18.172Z,1.70
2023-09-01T13:56:04.521Z,1.42
2023-09-01T13:58:50.624Z,1.75
2023-09-01T14:01:36.916Z,1.50
2023-09-01T14:04:23.254Z,1.70
2023-09-01T14:07:09.496Z,1.83
2023-09-01T14:09:55.917Z,1.45
2023-09-01T14:12:42.233Z,2.08
2023-09-01T14:15:28.648Z,2.42
2023-09-01T14:18:15.005Z,2.22
2023-09-01T14:21:01.220Z,1.67
2023-09-01T14:23:48.848Z,1.67
2023-09-01T14:26:36.637Z,1.70
2023-09-01T14:29:23.206Z,1.55
2023-09-01T14:32:09.381Z,1.77
2023-09-01T14:34:55.590Z,1.45
2023-09-01T14:37:41.846Z,1.75
2023-09-01T14:40:28.083Z,1.40
2023-09-01T14:43:15.240Z,1.33
2023-09-01T14:46:01.749Z,1.30
2023-09-01T14:48:48.372Z,1.50
2023-09-01T14:51:34.512Z,1.25
2023-09-01T14:54:20.609Z,1.40
2023-09-01T14:57:07.007Z,1.52
2023-09-01T14:59:53.276Z,1.40
2023-09-01T15:02:39.594Z,1.52
2023-09-01T15:05:25.693Z,1.75
2023-09-01T15:08:11.843Z,1.73
2023-09-01T15:11:02.950Z,1.80
2023-09-01T15:13:49.369Z,1.60
2023-09-01T15:16:35.971Z,1.70
2023-09-01T15:19:22.477Z,1.70
2023-09-01T15:22:08.564Z,1.83
2023-09-01T15:24:54.986Z,1.73
2023-09-01T15:27:41.322Z,1.70
2023-09-01T15:30:27.729Z,1.70
2023-09-01T15:33:14.059Z,1.80
2023-09-01T15:36:00.751Z,1.65
2023-09-01T15:38:48.430Z,1.90
2023-09-01T15:41:34.636Z,1.55
2023-09-01T15:44:21.108Z,1.90
2023-09-01T15:47:07.416Z,1.60
2023-09-01T15:49:53.743Z,1.90
2023-09-01T15:52:40.241Z,1.83
2023-09-01T15:55:26.378Z,2.65
2023-09-01T15:58:14.777Z,1.67
2023-09-01T16:01:18.587Z,1.70
2023-09-01T16:04:07.684Z,1.58
2023-09-01T16:06:54.326Z,1.60
2023-09-01T16:09:42.253Z,1.67
2023-09-01T16:12:31.542Z,1.60
2023-09-01T16:15:17.709Z,1.80
2023-09-01T16:18:04.564Z,1.77
2023-09-01T16:20:50.968Z,1.70
2023-09-01T16:23:37.022Z,1.70
2023-09-01T16:26:24.632Z,1.73
2023-09-01T16:29:10.987Z,2.17
2023-09-01T16:31:57.076Z,1.80
2023-09-01T16:34:43.529Z,2.05
2023-09-01T16:37:30.320Z,2.00
2023-09-01T16:40:16.948Z,2.30
2023-09-01T16:43:03.781Z,2.25
2023-09-01T16:45:54.970Z,2.20
2023-09-01T16:48:42.005Z,1.95
2023-09-01T16:51:28.697Z,2.10
2023-09-01T16:54:15.290Z,2.13
2023-09-01T16:57:02.066Z,2.10
2023-09-01T16:59:48.179Z,2.20
2023-09-01T17:02:34.914Z,2.33
2023-09-01T17:05:21.626Z,2.33
2023-09-01T17:08:08.091Z,2.17
2023-09-01T17:10:55.775Z,2.33
2023-09-01T17:13:43.033Z,2.15
2023-09-01T17:16:29.957Z,2.13
2023-09-01T17:19:16.572Z,2.60
2023-09-01T17:22:03.730Z,2.47
2023-09-01T17:24:50.773Z,2.65
2023-09-01T17:27:38.644Z,2.53
2023-09-01T17:30:25.669Z,2.50
2023-09-01T17:33:12.659Z,2.60
2023-09-01T17:35:59.201Z,2.78
2023-09-01T17:38:47.503Z,2.63
2023-09-01T17:41:41.558Z,2.40
2023-09-01T17:44:28.256Z,2.63
2023-09-01T17:47:14.978Z,2.60
2023-09-01T17:50:01.936Z,2.10
2023-09-01T17:52:50.519Z,2.80
2023-09-01T17:55:36.946Z,2.85
2023-09-01T17:58:23.999Z,2.97
2023-09-01T18:01:13.866Z,2.92
2023-09-01T18:04:01.036Z,2.30
2023-09-01T18:06:48.586Z,2.70
2023-09-01T18:09:37.102Z,2.75
2023-09-01T18:12:27.282Z,2.00
2023-09-01T18:15:16.386Z,2.20
2023-09-01T18:18:03.696Z,2.10
2023-09-01T18:20:50.647Z,2.30
2023-09-01T18:23:37.365Z,2.30
2023-09-01T18:26:23.758Z,2.47
2023-09-01T18:29:23.833Z,2.53
2023-09-01T18:32:11.440Z,2.10
2023-09-01T18:34:58.257Z,2.20
2023-09-01T18:37:46.217Z,1.95
2023-09-01T18:40:33.430Z,1.85
2023-09-01T18:43:20.511Z,2.05
2023-09-01T18:46:07.252Z,2.13
2023-09-01T18:48:53.913Z,2.00
2023-09-01T18:51:41.514Z,1.90
2023-09-01T18:54:29.249Z,1.60
2023-09-01T18:57:16.844Z,1.75
2023-09-01T19:00:04.962Z,1.60
2023-09-01T19:02:55.950Z,1.60
2023-09-01T19:05:44.975Z,1.65
2023-09-01T19:08:34.776Z,1.50
2023-09-01T19:11:22.656Z,1.50
2023-09-01T19:14:10.630Z,1.60
2023-09-01T19:16:57.476Z,1.42
2023-09-01T19:19:44.052Z,1.40
2023-09-01T19:22:30.817Z,1.33
2023-09-01T19:25:17.853Z,1.40
2023-09-01T19:28:11.921Z,1.45
2023-09-01T19:31:05.508Z,1.20
2023-09-01T19:34:02.253Z,1.40
2023-09-01T19:36:49.160Z,1.30
2023-09-01T19:39:36.038Z,1.40
2023-09-01T19:42:23.732Z,1.58
2023-09-01T19:45:14.277Z,1.30
2023-09-01T19:48:03.154Z,1.55
2023-09-01T19:50:49.988Z,1.30
2023-09-01T19:53:37.902Z,1.40
2023-09-01T19:56:25.389Z,1.90
2023-09-01T19:59:12.500Z,1.60
2023-09-01T20:01:59.898Z,1.50
2023-09-01T20:04:46.852Z,1.58
2023-09-01T20:07:39.954Z,1.80
2023-09-01T20:10:36.868Z,1.80
2023-09-01T20:13:23.748Z,1.60
2023-09-01T20:16:10.656Z,1.85
2023-09-01T20:18:57.427Z,1.88
2023-09-01T20:21:43.931Z,2.17
2023-09-01T20:24:30.009Z,2.10
2023-09-01T20:27:16.746Z,1.83
2023-09-01T20:30:03.229Z,2.03
2023-09-01T20:32:50.066Z,2.05
2023-09-01T20:35:36.611Z,2.03
2023-09-01T20:38:26.747Z,2.15
2023-09-01T20:41:14.947Z,2.33
2023-09-01T20:44:01.578Z,2.10
2023-09-01T20:46:48.344Z,2.13
2023-09-01T20:49:35.067Z,2.28
2023-09-01T20:52:21.854Z,2.20
2023-09-01T20:55:09.438Z,2.50
2023-09-01T20:57:56.336Z,2.55
2023-09-01T21:00:43.311Z,2.33
2023-09-01T21:03:29.977Z,2.40
2023-09-01T21:06:16.730Z,2.50
2023-09-01T21:09:02.875Z,2.53
2023-09-01T21:11:49.797Z,2.65
2023-09-01T21:14:36.398Z,2.40
2023-09-01T21:17:23.313Z,2.30
2023-09-01T21:20:09.983Z,2.40
2023-09-01T21:22:56.713Z,2.88
2023-09-01T21:25:43.595Z,2.35
2023-09-01T21:28:32.673Z,2.60
2023-09-01T21:31:20.581Z,2.08
2023-09-01T21:34:07.569Z,2.40
2023-09-01T21:36:54.583Z,2.30
2023-09-01T21:39:41.876Z,2.35
2023-09-01T21:42:29.167Z,2.45
2023-09-01T21:45:15.891Z,2.20
2023-09-01T21:48:02.773Z,2.22
2023-09-01T21:50:49.781Z,2.15
2023-09-01T21:53:40.880Z,2.30
2023-09-01T21:56:27.779Z,2.58
2023-09-01T21:59:14.376Z,2.53
2023-09-01T22:02:01.295Z,2.40
2023-09-01T22:04:50.263Z,2.50
2023-09-01T22:07:38.470Z,2.70
2023-09-01T22:10:25.031Z,2.58
2023-09-01T22:13:11.869Z,2.85
2023-09-01T22:15:58.882Z,2.50
2023-09-01T22:18:45.571Z,2.35
2023-09-01T22:21:32.333Z,2.58
2023-09-01T22:24:18.848Z,2.70
2023-09-01T22:27:05.788Z,2.53
2023-09-01T22:56:14.326Z,2.30
2023-09-01T22:59:00.515Z,2.50
2023-09-01T23:01:46.558Z,2.95
2023-09-01T23:04:33.290Z,2.33
2023-09-01T23:07:20.387Z,2.55
2023-09-01T23:10:07.812Z,2.35
2023-09-01T23:12:54.338Z,2.25
2023-09-01T23:15:40.875Z,2.42
2023-09-01T23:18:27.228Z,2.38
2023-09-01T23:21:13.957Z,2.58
2023-09-01T23:24:00.400Z,2.35
2023-09-01T23:26:46.540Z,2.40
2023-09-01T23:29:32.875Z,2.25
2023-09-01T23:32:19.178Z,2.70
2023-09-01T23:35:05.407Z,2.17
2023-09-01T23:37:52.914Z,2.05
2023-09-01T23:40:39.074Z,2.35
2023-09-01T23:43:25.189Z,2.22
2023-09-01T23:46:11.316Z,2.15
2023-09-01T23:48:57.662Z,2.45
2023-09-01T23:51:44.179Z,1.90
2023-09-01T23:54:30.574Z,1.95
2023-09-01T23:57:16.561Z,2.05
